Etusivu
METAR-TAF:

METAR-TAF

Lentoasemat :

Kuusamo, Suomi

Kuusamon lentoasema

Leveyspiiri: 65-58N, Pituuspiiri: 029-11E, korkeus merenpinnasta: 262 m

Tämänhetkinen sää

Tämä raportti tehtiin 13 minuuttia sitten, kello 04.50 UTC
Tuuli 5 kn pohjoisen/luoteesta, vaihdellen lännen ja pohjoisen/koillisen välillä
Lämpötila 5°C
Kosteus 70%
Ilmanpaine 1007 hPa
Näkyvyys 10 km tai enemmän
ei pilviä alle 1500 m:ssä eikä cumulonimbus-pilviä

METAR: EFKS 230450Z AUTO 34005KT 280V030 CAVOK 05/M00 Q1007

Aika: 08:03 (05:03 UTC)

Sääennuste

Tämä raportti tehtiin 20 tuntia ja 36 minuuttia sitten, kello 08.27 UTC
Ennuste voimassa 22. päivästä klo 09 UTC - 22. päivään klo 13 UTC
Tuuli 7 kn etelästä
Näkyvyys 10 km tai enemmän
ei pilviä alle 1500 m:ssä eikä cumulonimbus-pilviä

TAF: EFKS 220827Z 2209/2213 19007KT CAVOK

Säähavainnot ja -ennusteet yli 4000 lentoasemalta (METAR- ja TAF-raportit).

Käytössä olevat sääasemat on merkitty karttaan keltaisilla ja punaisilla pisteillä.

Aseta hiiri pisteen päälle nähdäksesi sääaseman nimen.

Klikkaa sitten nähdäksesi säähavainnot ja -ennusteet.

Kartan vaihtaminen: klikkaa mustalla rastilla varustettuja vihreitä pisteitä, niin voit zoomata sisään; viivalla varustettua vihreää pistettä, niin voit zoomata ulos tai vihreitä nuolia, niin pääset viereisille kartoille.


METAR-TAF: